EW4858 Weather Reports


Display with metric or nautical units.
time (UTC)temp
F
wind
direction
speed
MPH
gust
MPH
rain 1hr
in
rain 24hr
in
rain mn
in
humidity
%
barometer
mb
20240518013014 68 32 7.0 10.0 0.00 0.03 0.03 70 1008.5
20240518011515 69 58 6.0 10.0 0.00 0.03 0.03 68 1008.4
20240518010113 70 26 5.0 9.0 0.00 0.03 0.03 66 1008.3
20240518004514 71 51 3.0 11.0 0.00 0.03 0.03 65 1008.2
20240518003020 72 49 5.0 9.0 0.00 0.03 0.03 64 1008.1
20240518001513 73 61 5.0 12.0 0.00 0.03 0.03 62 1008.0
20240518000112 72 360 0.0 4.0 0.00 0.03 0.03 62 1007.9
20240517234514 72 155 4.0 9.0 0.00 0.03 0.03 63 1007.9
20240517233012 71 117 1.0 7.0 0.00 0.03 0.03 65 1007.9
20240517231511 72 77 3.0 8.0 0.00 0.03 0.03 64 1008.0
20240517230108 72 72 5.0 13.0 0.00 0.03 0.03 64 1008.3
20240517224505 72 108 4.0 10.0 0.00 0.03 0.03 64 1008.5
20240517223005 71 292 0.0 10.0 0.00 0.03 0.03 65 1008.7
20240517221607 71 9 3.0 8.0 0.00 0.03 0.03 65 1008.9
20240517220107 71 69 3.0 11.0 0.00 0.03 0.03 66 1009.1
20240517214554 70 355 3.0 9.0 0.00 0.03 0.03 66 1009.3
20240517213054 69 30 2.0 9.0 0.00 0.03 0.03 68 1009.4
20240517211550 69 65 1.0 8.0 0.00 0.03 0.03 69 1009.7
20240517210048 68 47 4.0 10.0 0.00 0.03 0.03 70 1009.9
20240517204553 68 81 3.0 8.0 0.00 0.03 0.03 71 1010.1
20240517203045 67 327 2.0 8.0 0.00 0.03 0.03 72 1010.2
20240517201545 66 78 1.0 7.0 0.00 0.03 0.03 74 1010.3
20240517200041 65 77 2.0 5.0 0.00 0.03 0.03 77 1010.4
20240517194537 65 14 1.0 6.0 0.00 0.03 0.03 77 1010.5
20240517193034 64 66 1.0 6.0 0.00 0.03 0.03 80 1010.5
20240517191540 63 54 1.0 5.0 0.00 0.03 0.03 82 1010.6
20240517190029 62 120 1.0 4.0 0.00 0.03 0.03 83 1010.7
20240517184527 62 46 0.0 4.0 0.00 0.03 0.03 83 1010.8
20240517183026 62 111 0.0 4.0 0.00 0.03 0.03 85 1010.8
20240517181524 61 126 2.0 4.0 0.00 0.03 0.03 85 1010.9
20240517180025 61 133 0.0 0.0 0.00 0.03 0.03 87 1011.0
20240517174525 60 84 0.0 0.0 0.00 0.03 0.03 88 1010.9
20240517173025 60 84 0.0 2.0 0.00 0.03 0.03 89 1011.0
20240517171519 60 125 0.0 2.0 0.00 0.03 0.03 90 1011.0
20240517170018 59 125 0.0 0.0 0.00 0.03 0.03 92 1011.1
20240517164520 59 125 0.0 0.0 0.00 0.03 0.03 92 1011.1
20240517163019 59 126 0.0 0.0 0.00 0.03 0.03 93 1011.2
20240517161519 59 123 0.0 0.0 0.00 0.03 0.03 93 1011.3
20240517160027 59 128 0.0 0.0 0.00 0.03 0.03 93 1011.4
20240517154530 59 92 0.0 3.0 0.00 0.03 0.03 94 1011.5
20240517153019 58 89 0.0 3.0 0.00 0.03 0.03 94 1011.3
20240517151521 58 104 0.0 3.0 0.00 0.03 0.03 94 1011.3
20240517150018 58 88 0.0 5.0 0.00 0.03 0.03 94 1011.0
20240517144516 58 111 2.0 4.0 0.00 0.03 0.03 94 1011.0
20240517143016 58 121 2.0 4.0 0.00 0.03 0.03 95 1010.8
20240517141515 57 108 2.0 6.0 0.00 0.03 0.03 95 1010.8
20240517140015 57 98 3.0 5.0 0.00 0.03 0.03 95 1010.8
20240517134518 57 98 2.0 5.0 0.00 0.03 0.03 95 1010.6
20240517133018 57 79 0.0 3.0 0.00 0.03 0.03 95 1010.5
20240517131518 57 90 2.0 5.0 0.00 0.03 0.03 95 1010.6
20240517130018 57 94 1.0 4.0 0.00 0.03 0.03 95 1010.5
20240517124516 57 85 0.0 4.0 0.00 0.03 0.03 96 1010.5
20240517123015 57 101 2.0 4.0 0.00 0.03 0.03 96 1010.5
20240517121515 57 98 2.0 6.0 0.00 0.03 0.03 95 1010.3
20240517120012 57 97 3.0 6.0 0.00 0.03 0.03 95 1010.4
20240517114510 57 121 2.0 4.0 0.00 0.03 0.03 95 1010.5
20240517113011 57 95 2.0 6.0 0.00 0.03 0.03 95 1010.5
20240517111509 57 82 1.0 3.0 0.00 0.03 0.03 95 1010.5
20240517110007 58 88 1.0 4.0 0.01 0.03 0.03 95 1010.6
20240517104512 58 88 1.0 5.0 0.01 0.03 0.03 95 1010.6
20240517103007 58 116 0.0 3.0 0.01 0.03 0.03 95 1010.7
20240517101515 58 110 1.0 5.0 0.01 0.03 0.03 95 1010.9
20240517100007 58 126 1.0 3.0 0.01 0.02 0.02 94 1010.7
20240517094507 58 126 0.0 3.0 0.01 0.02 0.02 94 1010.8
20240517093003 58 126 0.0 0.0 0.02 0.02 0.02 94 1010.9
20240517091505 58 126 1.0 3.0 0.02 0.02 0.02 93 1010.9
20240517090100 58 126 0.0 0.0 0.01 0.01 0.01 93 1011.1
20240517090001 58 126 0.0 0.0 0.01 0.01 0.01 93 1011.1
20240517084601 58 108 0.0 0.0 0.01 0.01 0.01 93 1011.2
20240517083059 58 108 0.0 3.0 0.00 0.00 0.00 92 1011.3
20240517081557 59 117 0.0 0.0 0.00 0.00 0.00 92 1011.3
20240517080104 59 94 1.0 3.0 0.00 0.00 0.00 91 1011.5
20240517074555 59 85 2.0 5.0 0.00 0.00 0.00 89 1011.4
20240517073053 59 136 0.0 0.0 0.00 0.00 0.00 89 1011.4
20240517071556 59 107 2.0 5.0 0.00 0.00 0.00 89 1011.4
20240517070049 60 124 2.0 5.0 0.00 0.00 0.00 87 1011.4
20240517064554 60 118 3.0 7.0 0.00 0.00 0.00 85 1011.3
20240517063050 60 97 3.0 6.0 0.00 0.00 0.00 84 1011.3
20240517061549 60 108 3.0 7.0 0.00 0.00 0.00 85 1011.4
20240517060047 60 128 4.0 7.0 0.00 0.00 0.00 84 1011.4
20240517054557 61 128 3.0 4.0 0.00 0.00 0.00 83 1011.2
20240517053106 61 105 3.0 5.0 0.00 0.00 0.00 84 1011.2
20240517051545 61 110 3.0 8.0 0.00 0.00 0.00 83 1011.0
20240517050045 61 72 3.0 6.0 0.00 0.00 0.00 82 1010.9
20240517044545 61 112 2.0 6.0 0.00 0.00 0.00 82 1010.9
20240517043045 61 107 3.0 7.0 0.00 0.00 0.00 82 1010.7
20240517041547 61 123 4.0 7.0 0.00 0.00 0.00 82 1010.4
20240517040058 61 133 3.0 7.0 0.00 0.00 0.00 82 1010.1
20240517034544 61 113 3.0 8.0 0.00 0.00 0.00 82 1009.9
20240517033044 61 100 3.0 8.0 0.00 0.00 0.00 81 1009.7
20240517031633 61 111 3.0 9.0 0.00 0.00 0.00 81 1009.6
20240517030051 63 119 5.0 10.0 0.00 0.00 0.00 78 1009.4
20240517024548 63 116 5.0 11.0 0.00 0.00 0.00 76 1009.2
20240517023042 64 109 4.0 7.0 0.00 0.00 0.00 75 1009.2
20240517021542 65 96 4.0 10.0 0.00 0.00 0.00 74 1009.0
20240517020041 65 94 3.0 7.0 0.00 0.00 0.00 72 1008.9
20240517014548 66 117 4.0 9.0 0.00 0.00 0.00 72 1008.8